createdAt,value
2022-12-06T00:01:10.762Z,25.07
2022-12-06T00:03:39.995Z,24.77
2022-12-06T00:06:10.091Z,24.43
2022-12-06T00:08:38.825Z,20.07
2022-12-06T00:11:09.922Z,24.13
2022-12-06T00:13:38.762Z,21.13
2022-12-06T00:16:10.183Z,23.60
2022-12-06T00:18:39.324Z,22.07
2022-12-06T00:21:09.333Z,21.87
2022-12-06T00:23:38.874Z,22.93
2022-12-06T00:26:08.199Z,19.93
2022-12-06T00:28:37.553Z,21.53
2022-12-06T00:31:07.525Z,20.83
2022-12-06T00:33:37.901Z,18.10
2022-12-06T00:36:08.047Z,20.80
2022-12-06T00:38:36.525Z,23.40
2022-12-06T00:41:06.677Z,19.73
2022-12-06T00:43:35.625Z,19.87
2022-12-06T00:46:04.605Z,19.13
2022-12-06T00:48:32.900Z,21.47
2022-12-06T00:51:02.397Z,20.27
2022-12-06T00:53:30.977Z,18.87
2022-12-06T00:55:59.336Z,20.07
2022-12-06T00:58:27.527Z,18.93
2022-12-06T01:00:55.739Z,21.53
2022-12-06T01:03:24.216Z,19.87
2022-12-06T01:05:52.636Z,20.13
2022-12-06T01:08:22.217Z,19.17
2022-12-06T01:10:54.700Z,17.30
2022-12-06T01:13:22.882Z,16.37
2022-12-06T01:15:51.234Z,17.60
2022-12-06T01:18:19.347Z,15.47
2022-12-06T01:20:47.640Z,17.57
2022-12-06T01:23:16.408Z,19.10
2022-12-06T01:25:52.272Z,16.53
2022-12-06T01:28:20.449Z,15.60
2022-12-06T01:30:48.604Z,17.93
2022-12-06T01:33:16.815Z,15.20
2022-12-06T01:35:44.949Z,16.37
2022-12-06T01:38:13.622Z,16.03
2022-12-06T01:40:43.277Z,18.20
2022-12-06T01:43:37.767Z,15.40
2022-12-06T01:46:14.107Z,16.47
2022-12-06T01:48:42.634Z,15.23
2022-12-06T01:51:13.408Z,17.97
2022-12-06T01:53:41.890Z,17.53
2022-12-06T01:56:10.244Z,14.83
2022-12-06T01:58:42.722Z,16.37
2022-12-06T02:01:11.377Z,14.57
2022-12-06T02:03:39.749Z,15.30
2022-12-06T02:06:09.677Z,13.30
2022-12-06T02:08:38.249Z,14.80
2022-12-06T02:11:06.624Z,15.67
2022-12-06T02:13:35.531Z,13.57
2022-12-06T02:16:13.310Z,17.43
2022-12-06T02:18:46.454Z,14.87
2022-12-06T02:21:17.766Z,14.80
2022-12-06T02:24:08.952Z,17.23
2022-12-06T02:26:39.181Z,21.17
2022-12-06T02:29:30.121Z,14.47
2022-12-06T02:32:01.048Z,16.37
2022-12-06T02:34:32.968Z,15.43
2022-12-06T02:37:04.276Z,15.87
2022-12-06T02:39:35.640Z,14.63
2022-12-06T02:42:06.500Z,13.83
2022-12-06T02:44:37.902Z,15.50
2022-12-06T02:47:09.648Z,12.93
2022-12-06T02:49:39.012Z,13.60
2022-12-06T02:52:07.291Z,13.23
2022-12-06T02:54:35.402Z,12.60
2022-12-06T02:57:03.489Z,13.27
2022-12-06T02:59:31.622Z,15.67
2022-12-06T03:02:01.599Z,13.70
2022-12-06T03:04:46.298Z,12.57
2022-12-06T03:07:25.456Z,14.93
2022-12-06T03:10:11.328Z,12.40
2022-12-06T03:12:41.967Z,16.33
2022-12-06T03:15:15.288Z,12.30
2022-12-06T03:17:47.452Z,13.20
2022-12-06T03:20:20.958Z,14.37
2022-12-06T03:22:52.316Z,17.23
2022-12-06T03:25:20.774Z,13.97
2022-12-06T03:27:49.796Z,16.37
2022-12-06T03:30:18.009Z,13.97
2022-12-06T03:32:55.422Z,17.07
2022-12-06T03:35:27.990Z,15.20
2022-12-06T03:38:00.243Z,12.90
2022-12-06T03:40:30.293Z,14.47
2022-12-06T03:43:00.145Z,17.20
2022-12-06T03:45:31.370Z,16.80
2022-12-06T03:48:06.014Z,14.83
2022-12-06T03:50:39.441Z,16.50
2022-12-06T03:53:07.755Z,14.93
2022-12-06T03:55:37.112Z,18.53
2022-12-06T03:58:09.851Z,15.00
2022-12-06T04:00:38.031Z,16.63
2022-12-06T04:03:06.014Z,17.30
2022-12-06T04:05:35.789Z,17.37
2022-12-06T04:08:04.103Z,16.67
2022-12-06T04:10:32.273Z,17.30
2022-12-06T04:13:02.026Z,18.37
2022-12-06T04:15:32.044Z,16.30
2022-12-06T04:18:13.352Z,15.27
2022-12-06T04:21:02.743Z,18.73
2022-12-06T04:23:32.789Z,19.23
2022-12-06T04:26:01.100Z,19.83
2022-12-06T04:28:46.345Z,18.33
2022-12-06T04:31:31.874Z,17.43
2022-12-06T04:34:17.317Z,20.00
2022-12-06T04:37:04.707Z,21.17
2022-12-06T04:39:33.117Z,20.67
2022-12-06T04:42:18.994Z,19.77
2022-12-06T04:44:47.281Z,20.60
2022-12-06T04:47:15.645Z,21.83
2022-12-06T04:49:43.755Z,21.17
2022-12-06T04:52:13.428Z,15.97
2022-12-06T04:54:41.826Z,19.27
2022-12-06T04:57:11.985Z,16.90
2022-12-06T04:59:41.419Z,19.13
2022-12-06T05:02:11.794Z,19.87
2022-12-06T05:04:40.021Z,18.03
2022-12-06T05:07:08.212Z,20.67
2022-12-06T05:09:37.676Z,21.63
2022-12-06T05:12:06.152Z,18.97
2022-12-06T05:14:34.268Z,17.90
2022-12-06T05:17:02.950Z,19.40
2022-12-06T05:19:31.722Z,21.37
2022-12-06T05:21:59.947Z,21.90
2022-12-06T05:24:28.066Z,19.00
2022-12-06T05:26:57.588Z,20.20
2022-12-06T05:29:25.722Z,23.90
2022-12-06T05:31:53.817Z,25.33
2022-12-06T05:34:22.064Z,24.17
2022-12-06T05:36:50.199Z,29.00
2022-12-06T05:39:18.379Z,26.67
2022-12-06T05:41:46.641Z,27.07
2022-12-06T05:44:16.327Z,29.27
2022-12-06T05:46:44.498Z,28.50
2022-12-06T05:49:13.399Z,31.23
2022-12-06T05:51:41.536Z,28.00
2022-12-06T05:54:09.609Z,29.40
2022-12-06T05:56:37.896Z,32.10
2022-12-06T05:59:05.991Z,26.60
2022-12-06T06:01:35.502Z,30.53
2022-12-06T06:04:03.700Z,29.77
2022-12-06T06:06:32.090Z,31.07
2022-12-06T06:09:00.312Z,25.00
2022-12-06T06:11:28.747Z,31.87
2022-12-06T06:13:56.937Z,31.20
2022-12-06T06:16:25.270Z,28.50
2022-12-06T06:18:55.163Z,35.37
2022-12-06T06:21:23.668Z,31.20
2022-12-06T06:23:51.921Z,27.03
2022-12-06T06:26:20.302Z,28.80
2022-12-06T06:28:48.530Z,27.83
2022-12-06T06:31:17.201Z,24.57
2022-12-06T06:33:45.509Z,28.40
2022-12-06T06:36:15.406Z,27.23
2022-12-06T06:38:43.887Z,25.67
2022-12-06T06:41:12.350Z,27.20
2022-12-06T06:43:40.920Z,27.57
2022-12-06T06:46:09.660Z,23.73
2022-12-06T06:48:39.744Z,25.67
2022-12-06T06:51:09.951Z,23.73
2022-12-06T06:53:40.378Z,23.20
2022-12-06T06:56:10.483Z,22.33
2022-12-06T06:58:38.998Z,24.70
2022-12-06T07:01:09.178Z,20.17
2022-12-06T07:03:37.366Z,24.63
2022-12-06T07:06:08.458Z,22.03
2022-12-06T07:08:36.774Z,21.33
2022-12-06T07:11:06.700Z,19.77
2022-12-06T07:13:35.232Z,18.87
2022-12-06T07:16:04.796Z,18.57
2022-12-06T07:18:32.937Z,19.43
2022-12-06T07:21:03.835Z,20.87
2022-12-06T07:23:33.145Z,18.13
2022-12-06T07:26:02.917Z,16.40
2022-12-06T07:28:32.514Z,19.87
2022-12-06T07:31:09.740Z,19.40
2022-12-06T07:33:38.098Z,23.07
2022-12-06T07:36:12.493Z,19.07
2022-12-06T07:38:42.173Z,19.23
2022-12-06T07:41:33.006Z,21.40
2022-12-06T07:44:19.987Z,20.77
2022-12-06T07:46:48.313Z,20.87
2022-12-06T07:49:17.665Z,21.93
2022-12-06T07:51:46.713Z,19.67
2022-12-06T07:54:15.217Z,19.57
2022-12-06T07:56:44.223Z,20.53
2022-12-06T07:59:17.068Z,19.33
2022-12-06T08:01:45.603Z,20.10
2022-12-06T08:04:17.235Z,22.53
2022-12-06T08:06:46.001Z,18.27
2022-12-06T08:09:14.374Z,20.10
2022-12-06T08:11:42.734Z,19.53
2022-12-06T08:14:14.689Z,25.03
2022-12-06T08:16:43.287Z,20.43
2022-12-06T08:19:14.758Z,22.30
2022-12-06T08:21:42.981Z,20.27
2022-12-06T08:24:11.508Z,19.47
2022-12-06T08:26:39.801Z,22.70
2022-12-06T08:29:09.441Z,23.60
2022-12-06T08:31:41.231Z,23.17
2022-12-06T08:34:09.356Z,24.53
2022-12-06T08:36:39.509Z,24.73
2022-12-06T08:39:09.043Z,24.37
2022-12-06T08:42:25.048Z,25.83
2022-12-06T08:44:56.603Z,30.80
2022-12-06T08:47:36.895Z,28.43
2022-12-06T08:50:18.667Z,27.60
2022-12-06T08:52:52.835Z,25.07
2022-12-06T08:55:40.657Z,31.67
2022-12-06T08:58:09.616Z,27.23
2022-12-06T09:00:45.759Z,30.57
2022-12-06T09:03:16.218Z,30.43
2022-12-06T09:05:44.961Z,31.03
2022-12-06T09:08:19.463Z,29.60
2022-12-06T09:10:52.007Z,32.33
2022-12-06T09:13:22.092Z,31.67
2022-12-06T09:15:52.243Z,30.77
2022-12-06T09:18:22.044Z,30.70
2022-12-06T09:20:50.619Z,32.07
2022-12-06T09:23:18.865Z,29.97
2022-12-06T09:25:47.022Z,33.33
2022-12-06T09:28:15.425Z,38.00
2022-12-06T09:30:44.009Z,32.80
2022-12-06T09:33:15.042Z,28.60
2022-12-06T09:35:44.993Z,29.87
2022-12-06T09:38:15.099Z,31.37
2022-12-06T09:40:52.845Z,32.43
2022-12-06T09:43:28.803Z,34.13
2022-12-06T09:46:12.091Z,29.50
2022-12-06T09:49:04.541Z,30.70
2022-12-06T09:51:45.575Z,25.97
2022-12-06T09:54:22.626Z,28.63
2022-12-06T09:56:54.341Z,27.00
2022-12-06T09:59:29.324Z,26.90
2022-12-06T10:02:13.909Z,24.27
2022-12-06T10:04:51.948Z,24.93
2022-12-06T10:07:27.808Z,20.80
2022-12-06T10:10:05.896Z,18.33
2022-12-06T10:12:44.506Z,20.03
2022-12-06T10:15:25.197Z,20.93
2022-12-06T10:18:08.173Z,18.70
2022-12-06T10:20:43.952Z,18.67
2022-12-06T10:23:26.064Z,19.50
2022-12-06T10:25:59.371Z,19.83
2022-12-06T10:28:33.801Z,21.47
2022-12-06T10:31:10.184Z,18.97
2022-12-06T10:33:43.875Z,20.27
2022-12-06T10:36:13.592Z,21.43
2022-12-06T10:38:46.825Z,19.27
2022-12-06T10:41:21.181Z,19.57
2022-12-06T10:43:53.840Z,18.67
2022-12-06T10:46:45.033Z,19.30
2022-12-06T10:49:20.749Z,21.27
2022-12-06T10:51:51.791Z,22.43
2022-12-06T10:54:26.954Z,20.20
2022-12-06T10:56:57.166Z,21.57
2022-12-06T10:59:29.815Z,21.20
2022-12-06T11:02:01.224Z,17.13
2022-12-06T11:04:33.888Z,19.60
2022-12-06T11:07:05.498Z,19.27
2022-12-06T11:09:40.593Z,17.47
2022-12-06T11:12:25.257Z,18.50
2022-12-06T11:15:01.796Z,19.10
2022-12-06T11:17:35.842Z,17.97
2022-12-06T11:20:08.298Z,17.40
2022-12-06T11:22:41.110Z,17.57
2022-12-06T11:25:15.883Z,19.00
2022-12-06T11:27:48.122Z,16.50
2022-12-06T11:30:20.189Z,18.13
2022-12-06T11:32:51.720Z,19.20
2022-12-06T11:35:22.993Z,18.23
2022-12-06T11:37:54.785Z,19.97
2022-12-06T11:40:28.105Z,19.93
2022-12-06T11:42:57.680Z,21.20
2022-12-06T11:45:27.638Z,24.63
2022-12-06T11:47:56.447Z,23.87
2022-12-06T11:50:26.572Z,21.73
2022-12-06T11:52:58.674Z,23.30
2022-12-06T11:55:31.388Z,23.70
2022-12-06T11:58:03.656Z,22.73
2022-12-06T12:00:31.803Z,20.47
2022-12-06T12:03:00.066Z,22.50
2022-12-06T12:05:39.621Z,21.87
2022-12-06T12:08:11.183Z,19.80
2022-12-06T12:10:41.841Z,20.57
2022-12-06T12:13:37.476Z,22.20
2022-12-06T12:16:22.268Z,23.93
2022-12-06T12:18:53.708Z,17.63
2022-12-06T12:21:35.707Z,18.37
2022-12-06T12:24:05.054Z,21.63
2022-12-06T12:26:40.410Z,22.27
2022-12-06T12:29:20.045Z,18.20
2022-12-06T12:31:53.587Z,18.27
2022-12-06T12:34:23.165Z,19.20
2022-12-06T12:36:52.866Z,21.53
2022-12-06T12:39:28.245Z,17.13
2022-12-06T12:41:58.045Z,21.67
2022-12-06T12:44:37.506Z,21.13
2022-12-06T12:47:17.560Z,21.30
2022-12-06T12:50:01.009Z,20.03
2022-12-06T12:52:32.601Z,17.10
2022-12-06T12:55:14.459Z,17.17
2022-12-06T12:57:46.323Z,20.57
2022-12-06T13:00:16.772Z,21.13
2022-12-06T13:02:49.318Z,18.00
2022-12-06T13:05:45.057Z,18.07
2022-12-06T13:08:14.955Z,15.43
2022-12-06T13:10:48.255Z,16.63
2022-12-06T13:13:20.276Z,18.43
2022-12-06T13:16:05.845Z,15.90
2022-12-06T13:18:40.620Z,14.70
2022-12-06T13:21:15.796Z,17.77
2022-12-06T13:23:51.811Z,14.67
2022-12-06T13:26:25.864Z,12.90
2022-12-06T13:28:59.475Z,10.63
2022-12-06T13:31:31.241Z,10.57
2022-12-06T13:34:01.892Z,11.60
2022-12-06T13:36:33.024Z,11.33
2022-12-06T13:39:33.782Z,11.03
2022-12-06T13:42:21.066Z,10.03
2022-12-06T13:44:56.640Z,9.37
2022-12-06T13:47:51.484Z,11.77
2022-12-06T13:50:53.163Z,10.07
2022-12-06T13:53:22.279Z,11.03
2022-12-06T13:55:58.924Z,14.20
2022-12-06T13:58:59.490Z,11.23
2022-12-06T14:01:41.860Z,11.63
2022-12-06T14:07:03.102Z,11.20
2022-12-06T14:09:38.983Z,10.67
2022-12-06T14:12:17.944Z,10.33
2022-12-06T14:14:56.396Z,10.20
2022-12-06T14:17:59.810Z,13.93
2022-12-06T14:20:21.435Z,14.23
2022-12-06T14:22:49.805Z,14.77
2022-12-06T14:25:20.719Z,21.63
2022-12-06T14:27:51.546Z,16.97
2022-12-06T14:30:25.966Z,17.47
2022-12-06T14:32:57.477Z,14.03
2022-12-06T14:35:27.988Z,18.80
2022-12-06T14:37:58.804Z,15.07
2022-12-06T14:40:45.853Z,13.07
2022-12-06T14:43:16.956Z,14.87
2022-12-06T14:45:45.930Z,14.20
2022-12-06T14:48:16.339Z,14.00
2022-12-06T14:50:45.410Z,15.47
2022-12-06T14:53:15.856Z,16.33
2022-12-06T14:55:54.725Z,15.03
2022-12-06T14:58:25.492Z,13.50
2022-12-06T15:00:55.456Z,12.93
2022-12-06T15:03:29.137Z,10.97
2022-12-06T15:06:16.005Z,12.03
2022-12-06T15:08:48.120Z,12.63
2022-12-06T15:11:45.957Z,13.47
2022-12-06T15:14:16.602Z,13.20
2022-12-06T15:16:47.352Z,13.20
2022-12-06T15:19:19.570Z,20.27
2022-12-06T15:21:52.533Z,14.70
2022-12-06T15:24:25.631Z,13.87
2022-12-06T15:26:54.220Z,15.27
2022-12-06T15:29:23.041Z,14.87
2022-12-06T15:31:53.573Z,10.97
2022-12-06T15:34:31.819Z,11.53
2022-12-06T15:37:36.941Z,12.87
2022-12-06T15:39:50.085Z,13.53
2022-12-06T15:42:19.510Z,13.13
2022-12-06T15:44:51.045Z,12.50
2022-12-06T15:47:20.003Z,14.13
2022-12-06T15:49:51.773Z,12.93
2022-12-06T15:52:23.075Z,14.10
2022-12-06T15:54:52.018Z,14.27
2022-12-06T15:57:20.196Z,13.27
2022-12-06T15:59:49.631Z,11.87
2022-12-06T16:02:19.534Z,12.50
2022-12-06T16:04:51.009Z,12.50
2022-12-06T16:07:19.727Z,11.93
2022-12-06T16:09:48.338Z,12.30
2022-12-06T16:12:16.501Z,14.87
2022-12-06T16:14:44.518Z,16.30
2022-12-06T16:17:12.705Z,15.63
2022-12-06T16:19:57.980Z,14.33
2022-12-06T16:22:41.438Z,15.00
2022-12-06T16:25:11.114Z,15.77
2022-12-06T16:27:40.213Z,17.70
2022-12-06T16:30:11.229Z,15.57
2022-12-06T16:32:39.472Z,19.43
2022-12-06T16:35:08.187Z,19.80
2022-12-06T16:37:38.577Z,20.17
2022-12-06T16:40:08.493Z,21.27
2022-12-06T16:42:36.987Z,14.60
2022-12-06T16:45:47.979Z,15.70
2022-12-06T16:48:23.821Z,18.13
2022-12-06T16:50:52.080Z,16.80
2022-12-06T16:53:22.355Z,17.73
2022-12-06T16:55:50.559Z,16.10
2022-12-06T16:58:18.704Z,14.40
2022-12-06T17:00:46.921Z,15.40
2022-12-06T17:03:15.040Z,14.67
2022-12-06T17:05:43.316Z,15.70
2022-12-06T17:08:12.041Z,16.27
2022-12-06T17:10:42.448Z,16.00
2022-12-06T17:13:13.597Z,15.40
2022-12-06T17:15:43.441Z,15.17
2022-12-06T17:18:11.940Z,18.83
2022-12-06T17:20:40.211Z,17.77
2022-12-06T17:23:08.280Z,16.37
2022-12-06T17:25:36.876Z,17.30
2022-12-06T17:28:06.523Z,16.87
2022-12-06T17:30:34.713Z,18.60
2022-12-06T17:33:02.882Z,16.00
2022-12-06T17:35:32.291Z,15.83
2022-12-06T17:38:01.102Z,16.17
2022-12-06T17:40:29.241Z,15.73
2022-12-06T17:43:02.265Z,17.70
2022-12-06T17:45:33.212Z,19.43
2022-12-06T17:48:01.581Z,19.63
2022-12-06T17:50:29.855Z,18.67
2022-12-06T17:52:57.937Z,19.87
2022-12-06T17:55:27.273Z,19.33
2022-12-06T17:57:55.606Z,22.00
2022-12-06T18:00:24.283Z,21.33
2022-12-06T18:02:56.405Z,19.90
2022-12-06T18:05:24.838Z,18.23
2022-12-06T18:07:53.245Z,20.07
2022-12-06T18:10:21.667Z,19.57
2022-12-06T18:12:49.984Z,19.40
2022-12-06T18:15:35.537Z,22.30
2022-12-06T18:18:06.348Z,21.03
2022-12-06T18:20:34.638Z,20.77
2022-12-06T18:23:03.651Z,21.23
2022-12-06T18:25:33.757Z,19.83
2022-12-06T18:28:02.804Z,22.43
2022-12-06T18:30:32.382Z,20.83
2022-12-06T18:33:01.911Z,21.53
2022-12-06T18:35:31.713Z,20.20
2022-12-06T18:38:02.717Z,22.00
2022-12-06T18:40:32.946Z,24.10
2022-12-06T18:43:01.417Z,18.20
2022-12-06T18:45:29.847Z,19.70
2022-12-06T18:47:58.350Z,21.63
2022-12-06T18:50:27.179Z,21.80
2022-12-06T18:52:57.035Z,21.63
2022-12-06T18:55:25.759Z,19.23
2022-12-06T18:57:54.190Z,18.27
2022-12-06T19:00:23.170Z,17.37
2022-12-06T19:02:51.566Z,17.67
2022-12-06T19:05:33.245Z,21.70
2022-12-06T19:08:18.957Z,32.40
2022-12-06T19:10:47.379Z,33.33
2022-12-06T19:13:15.945Z,25.10
2022-12-06T19:15:45.060Z,21.60
2022-12-06T19:18:13.900Z,19.77
2022-12-06T19:20:42.277Z,19.23
2022-12-06T19:23:13.590Z,19.33
2022-12-06T19:25:43.452Z,19.97
2022-12-06T19:28:12.936Z,18.20
2022-12-06T19:30:43.288Z,20.83
2022-12-06T19:33:11.799Z,17.83
2022-12-06T19:35:40.210Z,19.27
2022-12-06T19:38:08.838Z,21.47
2022-12-06T19:40:43.268Z,17.07
2022-12-06T19:43:29.563Z,18.70
2022-12-06T19:45:58.058Z,19.13
2022-12-06T19:48:26.498Z,21.43
2022-12-06T19:50:54.860Z,18.87
2022-12-06T19:53:23.354Z,17.83
2022-12-06T19:55:53.398Z,21.83
2022-12-06T19:58:23.853Z,19.83
2022-12-06T20:00:52.030Z,18.20
2022-12-06T20:03:20.168Z,20.13
2022-12-06T20:05:48.465Z,19.67
2022-12-06T20:08:17.258Z,19.73
2022-12-06T20:10:45.608Z,18.90
2022-12-06T20:13:15.650Z,19.93
2022-12-06T20:15:44.386Z,17.93
2022-12-06T20:18:12.744Z,18.27
2022-12-06T20:20:41.013Z,18.17
2022-12-06T20:23:10.710Z,19.50
2022-12-06T20:25:42.136Z,18.20
2022-12-06T20:28:13.573Z,23.03
2022-12-06T20:30:44.878Z,16.60
2022-12-06T20:33:14.155Z,18.37
2022-12-06T20:35:43.985Z,17.37
2022-12-06T20:38:16.769Z,19.33
2022-12-06T20:40:46.950Z,21.70
2022-12-06T20:43:17.351Z,16.63
2022-12-06T20:45:49.328Z,18.00
2022-12-06T20:48:19.193Z,17.13
2022-12-06T20:50:49.635Z,16.50
2022-12-06T20:53:19.580Z,18.60
2022-12-06T20:55:50.138Z,19.70
2022-12-06T20:58:20.377Z,19.07
2022-12-06T21:00:51.641Z,17.27
2022-12-06T21:03:20.874Z,16.50
2022-12-06T21:05:55.109Z,16.10
2022-12-06T21:08:23.837Z,17.40
2022-12-06T21:11:21.154Z,18.57
2022-12-06T21:13:41.834Z,16.70
2022-12-06T21:16:14.351Z,16.07
2022-12-06T21:18:43.305Z,20.30
2022-12-06T21:21:12.090Z,16.30
2022-12-06T21:23:40.911Z,20.63
2022-12-06T21:26:09.174Z,17.27
2022-12-06T21:28:37.670Z,17.80
2022-12-06T21:31:06.184Z,17.37
2022-12-06T21:33:35.748Z,18.97
2022-12-06T21:36:05.464Z,17.30
2022-12-06T21:38:36.871Z,16.33
2022-12-06T21:41:08.803Z,19.43
2022-12-06T21:43:37.465Z,16.67
2022-12-06T21:46:08.192Z,16.30
2022-12-06T21:48:41.120Z,15.93
2022-12-06T21:51:12.150Z,18.57
2022-12-06T21:53:41.734Z,16.07
2022-12-06T21:56:11.832Z,16.73
2022-12-06T21:58:40.198Z,18.20
2022-12-06T22:01:10.657Z,15.93
2022-12-06T22:03:41.084Z,15.37
2022-12-06T22:06:10.701Z,18.20
2022-12-06T22:08:41.068Z,17.07
2022-12-06T22:11:12.318Z,16.27
2022-12-06T22:13:41.015Z,16.77
2022-12-06T22:16:11.086Z,17.60
2022-12-06T22:18:45.555Z,16.80
2022-12-06T22:21:16.400Z,18.97
2022-12-06T22:23:46.275Z,16.30
2022-12-06T22:26:16.180Z,17.03
2022-12-06T22:28:44.786Z,18.53
2022-12-06T22:31:14.915Z,17.20
2022-12-06T22:33:44.718Z,17.27
2022-12-06T22:36:13.529Z,19.23
2022-12-06T22:38:41.779Z,18.77
2022-12-06T22:41:10.493Z,20.03
2022-12-06T22:43:39.042Z,21.17
2022-12-06T22:46:09.054Z,19.77
2022-12-06T22:48:37.620Z,17.87
2022-12-06T22:51:12.276Z,17.67
2022-12-06T22:53:41.354Z,18.77
2022-12-06T22:56:10.185Z,21.03
2022-12-06T22:58:39.055Z,21.73
2022-12-06T23:01:16.507Z,21.87
2022-12-06T23:03:46.380Z,20.60
2022-12-06T23:06:17.309Z,20.03
2022-12-06T23:08:45.876Z,20.03
2022-12-06T23:11:19.785Z,19.40
2022-12-06T23:13:48.692Z,22.13
2022-12-06T23:16:20.109Z,20.97
2022-12-06T23:18:48.655Z,22.07
2022-12-06T23:21:19.497Z,24.77
2022-12-06T23:23:49.157Z,23.43
2022-12-06T23:26:18.959Z,29.27
2022-12-06T23:28:47.634Z,20.57
2022-12-06T23:31:17.424Z,24.50
2022-12-06T23:33:46.460Z,23.67
2022-12-06T23:36:16.401Z,25.93
2022-12-06T23:38:51.210Z,26.77
2022-12-06T23:41:21.254Z,26.50
2022-12-06T23:43:49.939Z,26.07
2022-12-06T23:46:22.810Z,27.90
2022-12-06T23:48:54.029Z,29.43
2022-12-06T23:51:23.755Z,28.93
2022-12-06T23:53:54.887Z,28.30
2022-12-06T23:56:23.776Z,28.93
2022-12-06T23:58:55.031Z,27.17
